Time;durP1;ratioP1;P1;durP2;ratioP2;P2;SDS_P1;SDS_P2;PMS_P1;PMS_P2;Temp;Humidity;BMP_temperature;BMP_pressure;BME280_temperature;BME280_humidity;BME280_pressure;Samples;Min_cycle;Max_cycle;Signal;HPM_P1;HPM_P2
2023/09/07 00:01:55;;;;;;;7.73;5.90;;;21.10;99.90;;;;;;5041843;28;20475;-59
2023/09/07 00:04:22;;;;;;;8.63;5.70;;;21.10;99.90;;;;;;5042566;28;20499;-60
2023/09/07 00:06:49;;;;;;;6.00;5.40;;;21.00;99.90;;;;;;5041155;28;20534;-59
2023/09/07 00:09:18;;;;;;;12.20;6.30;;;21.00;99.90;;;;;;5046652;28;20436;-60
2023/09/07 00:11:45;;;;;;;7.03;5.33;;;21.00;99.90;;;;;;5067481;28;21009;-59
2023/09/07 00:14:12;;;;;;;6.10;5.20;;;20.90;99.90;;;;;;5082789;28;20458;-59
2023/09/07 00:16:38;;;;;;;6.40;5.60;;;21.00;99.90;;;;;;5083143;28;20504;-60
2023/09/07 00:19:07;;;;;;;7.40;6.00;;;21.00;99.90;;;;;;5083965;28;20488;-60
2023/09/07 00:21:34;;;;;;;5.70;5.10;;;21.00;99.90;;;;;;5084063;28;20454;-59
2023/09/07 00:24:05;;;;;;;7.77;6.00;;;21.00;99.90;;;;;;5080767;28;20527;-57
2023/09/07 00:26:37;;;;;;;6.13;5.53;;;20.90;99.90;;;;;;5072860;28;20475;-60
2023/09/07 00:29:06;;;;;;;7.67;6.33;;;20.90;99.90;;;;;;5071141;28;20455;-59
2023/09/07 00:31:33;;;;;;;6.70;6.00;;;20.90;99.90;;;;;;5062609;28;20960;-60
2023/09/07 00:34:00;;;;;;;6.57;5.70;;;20.80;99.90;;;;;;5060781;28;20459;-60
2023/09/07 00:36:28;;;;;;;5.70;5.10;;;20.90;99.90;;;;;;5060496;28;20559;-60
2023/09/07 00:38:55;;;;;;;7.77;7.03;;;20.80;99.90;;;;;;5060511;28;20521;-58
2023/09/07 00:41:21;;;;;;;6.83;5.80;;;20.80;99.90;;;;;;5066918;28;20546;-60
2023/09/07 00:43:48;;;;;;;8.13;6.03;;;20.70;99.90;;;;;;5081044;28;20507;-59
2023/09/07 00:46:17;;;;;;;7.57;6.03;;;20.70;99.90;;;;;;5080227;28;20525;-58
2023/09/07 00:48:44;;;;;;;7.97;6.17;;;20.70;99.90;;;;;;5080531;28;20442;-59
2023/09/07 00:51:11;;;;;;;10.87;6.30;;;20.70;99.90;;;;;;5067471;28;20463;-59
2023/09/07 00:53:39;;;;;;;8.67;6.40;;;20.60;99.90;;;;;;5056475;28;20508;-60
2023/09/07 00:56:07;;;;;;;9.03;7.10;;;20.70;99.90;;;;;;5040116;28;20539;-58
2023/09/07 00:58:34;;;;;;;9.50;7.20;;;20.50;99.90;;;;;;5039937;28;20574;-59
2023/09/07 01:01:02;;;;;;;7.37;6.00;;;20.50;99.90;;;;;;5049267;28;20513;-61
2023/09/07 01:03:29;;;;;;;9.10;6.40;;;20.50;99.90;;;;;;5060283;28;20470;-61
2023/09/07 01:06:03;;;;;;;8.50;6.17;;;20.50;99.90;;;;;;5059756;28;20546;-60
2023/09/07 01:08:36;;;;;;;7.20;6.20;;;20.50;99.90;;;;;;5060369;28;20457;-60
2023/09/07 01:11:14;;;;;;;6.33;5.63;;;20.40;99.90;;;;;;5060395;28;20467;-60
2023/09/07 01:13:43;;;;;;;7.10;5.47;;;20.40;99.90;;;;;;5060622;28;20510;-59
2023/09/07 01:16:11;;;;;;;7.47;5.43;;;20.40;99.90;;;;;;5059947;28;20497;-59
2023/09/07 01:18:39;;;;;;;6.17;5.57;;;20.40;99.90;;;;;;5060483;28;20525;-61
2023/09/07 01:21:08;;;;;;;7.43;5.83;;;20.40;99.90;;;;;;5060160;28;20467;-59
2023/09/07 01:23:37;;;;;;;8.27;5.87;;;20.40;99.90;;;;;;5060724;28;20443;-60
2023/09/07 01:26:07;;;;;;;6.77;6.10;;;20.40;99.90;;;;;;5060204;28;20481;-59
2023/09/07 01:28:34;;;;;;;7.47;6.10;;;20.40;99.90;;;;;;5063352;28;20455;-60
2023/09/07 01:31:01;;;;;;;9.80;6.50;;;20.40;99.90;;;;;;5059269;28;20927;-59
2023/09/07 01:33:28;;;;;;;6.23;5.53;;;20.40;99.90;;;;;;5065511;28;20522;-60
2023/09/07 01:35:55;;;;;;;10.00;5.37;;;20.40;99.90;;;;;;5075880;28;20479;-58
2023/09/07 01:38:21;;;;;;;12.27;5.83;;;20.30;99.90;;;;;;5059524;28;20512;-59
2023/09/07 01:40:50;;;;;;;7.10;5.40;;;20.30;99.90;;;;;;5060356;28;20959;-61
2023/09/07 01:43:16;;;;;;;8.30;5.57;;;20.30;99.90;;;;;;5060605;28;20751;-59
2023/09/07 01:45:43;;;;;;;16.50;6.70;;;20.30;99.90;;;;;;5060058;28;20622;-60
2023/09/07 01:48:15;;;;;;;9.60;6.33;;;20.30;99.90;;;;;;5060402;28;20860;-60
2023/09/07 01:50:45;;;;;;;11.40;6.07;;;20.30;99.90;;;;;;5059781;28;20462;-59
2023/09/07 01:53:11;;;;;;;7.10;6.23;;;20.30;99.90;;;;;;5059406;28;20535;-57
2023/09/07 01:55:41;;;;;;;14.00;5.73;;;20.30;99.90;;;;;;5059722;28;20542;-59
2023/09/07 01:58:09;;;;;;;10.23;4.90;;;20.30;99.90;;;;;;5059278;28;20554;-59
2023/09/07 02:00:39;;;;;;;8.33;5.53;;;20.30;99.90;;;;;;5059659;28;20579;-61
2023/09/07 02:03:07;;;;;;;9.50;7.87;;;20.20;99.90;;;;;;5059900;28;20463;-60
2023/09/07 02:05:34;;;;;;;5.80;5.20;;;20.30;99.90;;;;;;5059829;28;20439;-60
2023/09/07 02:08:01;;;;;;;6.83;5.50;;;20.20;99.90;;;;;;5061004;28;20447;-60
2023/09/07 02:10:27;;;;;;;7.80;5.70;;;20.30;99.90;;;;;;5060108;28;20471;-60
2023/09/07 02:12:56;;;;;;;8.20;6.93;;;20.20;99.90;;;;;;5060443;28;20467;-59
2023/09/07 02:15:25;;;;;;;7.90;7.10;;;20.30;99.90;;;;;;5060349;28;20934;-60
2023/09/07 02:17:52;;;;;;;6.43;5.63;;;20.20;99.90;;;;;;5060097;28;20486;-60
2023/09/07 02:20:20;;;;;;;6.63;4.97;;;20.20;99.90;;;;;;5059829;28;20479;-59
2023/09/07 02:22:50;;;;;;;6.50;5.40;;;20.20;99.90;;;;;;5060238;28;20447;-59
2023/09/07 02:25:20;;;;;;;6.73;5.57;;;20.10;99.90;;;;;;5060256;28;20471;-59
2023/09/07 02:27:47;;;;;;;8.20;5.80;;;20.10;99.90;;;;;;5060686;28;20467;-60
2023/09/07 02:30:14;;;;;;;7.13;5.40;;;20.10;99.90;;;;;;5062506;28;20478;-60
2023/09/07 02:32:44;;;;;;;7.43;5.90;;;20.10;99.90;;;;;;5064340;28;20451;-58
2023/09/07 02:35:10;;;;;;;12.70;6.23;;;20.10;99.90;;;;;;5044504;28;20848;-60
2023/09/07 02:37:37;;;;;;;8.43;6.07;;;20.10;99.90;;;;;;5044350;28;20539;-59
2023/09/07 02:40:07;;;;;;;6.90;5.57;;;20.00;99.90;;;;;;5058263;28;20478;-58
2023/09/07 02:42:34;;;;;;;14.03;6.40;;;20.10;99.90;;;;;;5063884;28;20504;-61
2023/09/07 02:45:01;;;;;;;7.73;4.93;;;20.00;99.90;;;;;;5063571;28;20444;-58
2023/09/07 02:47:28;;;;;;;11.60;5.97;;;20.00;99.90;;;;;;5065165;28;20471;-59
2023/09/07 02:49:56;;;;;;;6.17;5.50;;;20.00;99.90;;;;;;5063984;28;20495;-59
2023/09/07 02:52:23;;;;;;;8.37;6.00;;;19.90;99.90;;;;;;5063897;28;20472;-60
2023/09/07 02:54:50;;;;;;;8.70;6.30;;;19.90;99.90;;;;;;5063670;28;20450;-61
2023/09/07 02:57:17;;;;;;;5.63;5.10;;;19.90;99.90;;;;;;5063911;28;20961;-60
2023/09/07 02:59:44;;;;;;;11.80;6.27;;;19.90;99.90;;;;;;5063022;28;20577;-59
2023/09/07 03:02:11;;;;;;;9.20;6.87;;;19.90;99.90;;;;;;5063708;28;20455;-58
2023/09/07 03:04:37;;;;;;;6.40;5.70;;;19.80;99.90;;;;;;5062996;28;20503;-58
2023/09/07 03:07:06;;;;;;;10.80;6.83;;;19.80;99.90;;;;;;5063421;28;20454;-60
2023/09/07 03:09:32;;;;;;;8.07;6.33;;;19.80;99.90;;;;;;5063531;28;20458;-59
2023/09/07 03:11:59;;;;;;;7.00;6.30;;;19.70;99.90;;;;;;5061798;28;20528;-58
2023/09/07 03:14:28;;;;;;;15.80;6.70;;;19.60;99.90;;;;;;5062754;28;20990;-59
2023/09/07 03:16:55;;;;;;;6.97;5.83;;;19.60;99.90;;;;;;5062931;28;20504;-61
2023/09/07 03:19:22;;;;;;;7.17;5.20;;;19.50;99.90;;;;;;5061890;28;20494;-59
2023/09/07 03:21:49;;;;;;;9.50;6.40;;;19.40;99.90;;;;;;5063367;28;20715;-59
2023/09/07 03:24:17;;;;;;;8.30;7.27;;;19.40;99.90;;;;;;5063746;28;20463;-59
2023/09/07 03:26:45;;;;;;;7.83;6.40;;;19.40;99.90;;;;;;5064249;28;20972;-58
2023/09/07 03:29:12;;;;;;;8.57;7.00;;;19.40;99.90;;;;;;5064029;28;20502;-59
2023/09/07 03:31:39;;;;;;;7.03;6.10;;;19.40;99.90;;;;;;5063174;28;20524;-60
2023/09/07 03:34:10;;;;;;;9.17;6.43;;;19.40;99.90;;;;;;5063681;28;20443;-61
2023/09/07 03:36:40;;;;;;;7.03;6.33;;;19.30;99.90;;;;;;5063584;28;20501;-60
2023/09/07 03:39:07;;;;;;;9.33;6.03;;;19.30;99.90;;;;;;5043923;28;20531;-60
2023/09/07 03:41:35;;;;;;;8.60;6.27;;;19.30;99.90;;;;;;5061702;28;20474;-59
2023/09/07 03:44:02;;;;;;;11.30;6.40;;;19.20;99.90;;;;;;5063177;28;20447;-59
2023/09/07 03:46:29;;;;;;;6.53;5.50;;;19.20;99.90;;;;;;5060130;28;20980;-59
2023/09/07 03:48:56;;;;;;;8.40;6.60;;;19.20;99.90;;;;;;5059400;28;20846;-60
2023/09/07 03:51:23;;;;;;;10.50;6.30;;;19.20;99.90;;;;;;5059768;28;20919;-59
2023/09/07 03:53:50;;;;;;;7.33;6.40;;;19.10;99.90;;;;;;5060170;28;20657;-60
2023/09/07 03:56:17;;;;;;;8.27;6.90;;;19.10;99.90;;;;;;5059618;28;20475;-59
2023/09/07 03:58:47;;;;;;;9.63;6.30;;;19.10;99.90;;;;;;5059908;28;20546;-60
2023/09/07 04:01:13;;;;;;;8.20;6.20;;;19.10;99.90;;;;;;5059020;28;20478;-60
2023/09/07 04:03:41;;;;;;;8.47;6.00;;;19.10;99.90;;;;;;5059245;28;20475;-59
2023/09/07 04:06:08;;;;;;;6.57;5.93;;;19.10;99.90;;;;;;5059581;28;20540;-59
2023/09/07 04:08:35;;;;;;;10.03;6.50;;;19.00;99.90;;;;;;5058846;28;20815;-59
2023/09/07 04:11:05;;;;;;;8.80;6.23;;;18.90;99.90;;;;;;5059245;28;21081;-60
2023/09/07 04:13:32;;;;;;;10.23;6.03;;;19.20;99.90;;;;;;5060305;28;20543;-59
2023/09/07 04:16:00;;;;;;;9.80;6.50;;;18.90;99.90;;;;;;5053426;28;20555;-60
2023/09/07 04:18:27;;;;;;;7.63;6.30;;;18.80;99.90;;;;;;5041298;28;20531;-61
2023/09/07 04:20:56;;;;;;;8.07;6.93;;;18.80;99.90;;;;;;5059306;28;20510;-61
2023/09/07 04:23:23;;;;;;;9.30;6.73;;;18.80;99.90;;;;;;5059053;28;20535;-59
2023/09/07 04:25:50;;;;;;;8.13;6.30;;;18.80;99.90;;;;;;5059764;28;20865;-60
2023/09/07 04:28:16;;;;;;;11.30;7.13;;;18.90;99.90;;;;;;5059019;28;20569;-60
2023/09/07 04:30:43;;;;;;;9.77;6.40;;;18.80;99.90;;;;;;5060102;28;20479;-59
2023/09/07 04:33:11;;;;;;;10.27;6.63;;;18.80;99.90;;;;;;5059251;28;20475;-61
2023/09/07 04:35:38;;;;;;;8.73;6.77;;;18.80;99.90;;;;;;5058879;28;20498;-60
2023/09/07 04:38:08;;;;;;;10.57;6.50;;;18.80;99.90;;;;;;5062778;28;20486;-61
2023/09/07 04:40:35;;;;;;;11.60;5.77;;;18.80;99.90;;;;;;5079817;28;20510;-61
2023/09/07 04:43:02;;;;;;;9.73;7.97;;;18.70;99.90;;;;;;5069016;28;20554;-59
2023/09/07 04:45:28;;;;;;;11.00;6.20;;;18.70;99.90;;;;;;5058531;28;20481;-60
2023/09/07 04:47:55;;;;;;;8.47;6.63;;;18.70;99.90;;;;;;5062326;28;20546;-59
2023/09/07 04:50:23;;;;;;;8.00;6.40;;;18.70;99.90;;;;;;5063246;28;20502;-59
2023/09/07 04:52:50;;;;;;;9.57;6.10;;;18.70;99.90;;;;;;5063377;28;20479;-62
2023/09/07 04:55:17;;;;;;;7.27;6.27;;;18.70;99.90;;;;;;5056303;28;20499;-60
2023/09/07 04:57:44;;;;;;;8.13;6.80;;;18.70;99.90;;;;;;5059225;28;20999;-59
2023/09/07 05:00:12;;;;;;;8.43;6.70;;;18.70;99.90;;;;;;5063304;28;20503;-59
2023/09/07 05:02:42;;;;;;;8.83;6.13;;;18.60;99.90;;;;;;5062808;28;20530;-58
2023/09/07 05:05:09;;;;;;;11.67;6.47;;;18.70;99.90;;;;;;5063526;28;20459;-60
2023/09/07 05:07:38;;;;;;;7.50;6.47;;;18.70;99.90;;;;;;5062245;28;20979;-58
2023/09/07 05:10:06;;;;;;;13.40;6.67;;;18.70;99.90;;;;;;5063188;28;20523;-61
2023/09/07 05:12:33;;;;;;;8.60;6.40;;;18.70;99.90;;;;;;5063333;28;20459;-59
2023/09/07 05:15:00;;;;;;;12.00;7.40;;;18.70;99.90;;;;;;5062089;28;20539;-59
2023/09/07 05:17:27;;;;;;;7.50;6.73;;;18.80;99.90;;;;;;5062356;28;20885;-60
2023/09/07 05:19:54;;;;;;;9.40;7.13;;;18.80;99.90;;;;;;5062646;28;20994;-59
2023/09/07 05:22:22;;;;;;;11.00;7.17;;;18.80;99.90;;;;;;5062051;28;20543;-58
2023/09/07 05:24:50;;;;;;;11.20;7.40;;;18.90;99.90;;;;;;5063248;28;20453;-60
2023/09/07 05:27:17;;;;;;;7.97;6.33;;;18.90;99.90;;;;;;5062328;28;20546;-60
2023/09/07 05:29:44;;;;;;;8.80;6.43;;;18.90;99.90;;;;;;5062652;28;20466;-58
2023/09/07 05:32:11;;;;;;;10.80;6.20;;;19.00;99.90;;;;;;5061620;28;20471;-59
2023/09/07 05:34:40;;;;;;;9.10;6.60;;;19.00;99.90;;;;;;5059626;28;20521;-60
2023/09/07 05:37:07;;;;;;;8.13;6.60;;;19.00;99.90;;;;;;5058294;28;20485;-58
2023/09/07 05:39:37;;;;;;;11.37;7.80;;;19.10;99.90;;;;;;5057521;28;20443;-58
2023/09/07 05:42:06;;;;;;;6.93;6.00;;;19.20;99.90;;;;;;5069287;28;20443;-54
2023/09/07 05:44:34;;;;;;;10.50;6.60;;;19.20;99.90;;;;;;5075373;28;20494;-58
2023/09/07 05:47:02;;;;;;;8.60;7.10;;;19.30;99.90;;;;;;5074540;28;20472;-58
2023/09/07 05:49:28;;;;;;;10.97;6.83;;;19.30;99.90;;;;;;5072207;28;20443;-60
2023/09/07 05:51:55;;;;;;;10.30;6.93;;;19.30;99.90;;;;;;5065453;28;20471;-57
2023/09/07 05:54:22;;;;;;;11.20;6.50;;;19.40;99.90;;;;;;5062353;28;20439;-57
2023/09/07 05:56:49;;;;;;;7.23;5.97;;;19.50;99.90;;;;;;5062627;28;20440;-58
2023/09/07 05:59:18;;;;;;;8.00;5.80;;;20.00;99.90;;;;;;5058173;28;20521;-59
2023/09/07 06:01:49;;;;;;;10.37;6.53;;;19.70;99.90;;;;;;5043878;28;20479;-57
2023/09/07 06:04:16;;;;;;;10.10;6.10;;;20.00;99.90;;;;;;5057723;28;20534;-56
2023/09/07 06:06:43;;;;;;;9.40;6.70;;;19.80;99.90;;;;;;5062260;28;20502;-52
2023/09/07 06:09:10;;;;;;;10.70;6.50;;;19.90;99.90;;;;;;5060484;28;20459;-60
2023/09/07 06:11:37;;;;;;;8.63;6.27;;;19.90;99.90;;;;;;5061104;28;20521;-61
2023/09/07 06:14:04;;;;;;;8.50;6.43;;;20.00;99.90;;;;;;5059217;28;20510;-56
2023/09/07 06:16:32;;;;;;;16.07;6.93;;;20.00;99.90;;;;;;5060766;28;21007;-58
2023/09/07 06:18:59;;;;;;;8.20;6.90;;;20.00;99.90;;;;;;5053370;28;20566;-60
2023/09/07 06:21:26;;;;;;;7.47;5.87;;;20.00;99.90;;;;;;5041507;28;20543;-59
2023/09/07 06:23:52;;;;;;;8.40;6.87;;;20.10;99.90;;;;;;5039425;28;20482;-61
2023/09/07 06:26:19;;;;;;;7.07;6.17;;;20.10;99.90;;;;;;5061771;28;20462;-58
2023/09/07 06:28:46;;;;;;;9.33;7.67;;;20.10;99.90;;;;;;5078793;28;21031;-59
2023/09/07 06:31:13;;;;;;;8.50;6.60;;;20.20;99.90;;;;;;5069073;28;20519;-61
2023/09/07 06:33:41;;;;;;;8.20;6.13;;;20.20;99.90;;;;;;5050571;28;20478;-58
2023/09/07 06:36:08;;;;;;;7.30;5.90;;;20.20;99.90;;;;;;5049337;28;20506;-60
2023/09/07 06:38:35;;;;;;;11.57;5.80;;;20.30;99.90;;;;;;5053580;28;20549;-59
2023/09/07 06:41:02;;;;;;;7.60;6.80;;;20.30;99.90;;;;;;5051753;28;20472;-58
2023/09/07 06:43:30;;;;;;;11.13;8.17;;;20.40;99.90;;;;;;5051673;28;20431;-58
2023/09/07 06:46:07;;;;;;;15.60;7.40;;;20.50;99.90;;;;;;5056534;28;20459;-60
2023/09/07 06:48:34;;;;;;;10.87;6.93;;;20.60;99.90;;;;;;5058818;28;20741;-60
2023/09/07 06:51:04;;;;;;;8.93;6.20;;;20.60;99.90;;;;;;5060569;28;20504;-60
2023/09/07 06:53:31;;;;;;;10.80;6.50;;;20.70;99.90;;;;;;5061112;28;20462;-59
2023/09/07 06:55:59;;;;;;;10.70;6.07;;;20.80;99.90;;;;;;5060493;28;20520;-59
2023/09/07 06:58:26;;;;;;;15.37;7.63;;;20.80;99.90;;;;;;5057972;28;20489;-60
2023/09/07 07:00:53;;;;;;;9.30;7.50;;;20.90;99.90;;;;;;5057462;28;20586;-58
2023/09/07 07:03:20;;;;;;;7.60;6.70;;;20.90;99.90;;;;;;5056933;28;20538;-59
2023/09/07 07:05:47;;;;;;;10.80;5.90;;;21.00;99.90;;;;;;5037566;28;21105;-58
2023/09/07 07:08:15;;;;;;;12.97;6.40;;;21.10;99.90;;;;;;5036658;28;20535;-60
2023/09/07 07:10:43;;;;;;;8.50;6.33;;;21.20;99.90;;;;;;5036633;28;21031;-60
2023/09/07 07:13:10;;;;;;;7.10;6.37;;;21.30;99.90;;;;;;5037300;28;20483;-58
2023/09/07 07:15:37;;;;;;;10.60;7.53;;;21.50;99.90;;;;;;5036421;28;20498;-59
2023/09/07 07:18:08;;;;;;;12.90;6.50;;;21.30;99.90;;;;;;5037646;28;20547;-60
2023/09/07 07:20:35;;;;;;;9.10;7.10;;;21.40;99.90;;;;;;5037599;28;20538;-59
2023/09/07 07:23:01;;;;;;;8.10;6.90;;;21.40;99.90;;;;;;5037548;28;20576;-59
2023/09/07 07:25:31;;;;;;;7.60;6.30;;;21.50;99.90;;;;;;5052285;28;20496;-60
2023/09/07 07:27:58;;;;;;;9.77;6.23;;;21.60;99.90;;;;;;5057570;28;20530;-59
2023/09/07 07:30:29;;;;;;;11.73;6.77;;;21.60;99.90;;;;;;5058126;28;20459;-60
2023/09/07 07:32:56;;;;;;;16.70;10.57;;;21.70;99.90;;;;;;5077971;28;20423;-59
2023/09/07 07:35:23;;;;;;;11.00;8.33;;;21.80;99.90;;;;;;5077205;28;20485;-59
2023/09/07 07:37:51;;;;;;;14.07;7.53;;;21.90;99.90;;;;;;5077522;28;20498;-57
2023/09/07 07:40:18;;;;;;;9.40;6.80;;;21.90;99.90;;;;;;5077428;28;20474;-60
2023/09/07 07:42:47;;;;;;;11.87;6.30;;;22.10;99.90;;;;;;5077573;28;20458;-60
2023/09/07 07:45:14;;;;;;;11.47;6.13;;;22.10;99.90;;;;;;5077192;28;20459;-60
2023/09/07 07:47:41;;;;;;;10.30;6.73;;;22.20;99.90;;;;;;5076817;28;20442;-59
2023/09/07 07:50:09;;;;;;;10.63;6.60;;;22.30;99.90;;;;;;5077158;28;20433;-58
2023/09/07 07:52:36;;;;;;;11.37;7.33;;;22.40;99.90;;;;;;5079323;28;20422;-59
2023/09/07 07:55:03;;;;;;;9.77;5.80;;;22.50;99.90;;;;;;5079276;28;20549;-56
2023/09/07 07:57:30;;;;;;;7.60;5.93;;;22.50;99.90;;;;;;5079010;28;20554;-59
2023/09/07 07:59:58;;;;;;;9.47;6.33;;;22.60;99.90;;;;;;5060165;28;20538;-60
2023/09/07 08:02:25;;;;;;;14.20;6.17;;;22.80;99.90;;;;;;5059693;28;20522;-61
2023/09/07 08:04:52;;;;;;;8.20;5.67;;;22.90;99.90;;;;;;5059557;28;20566;-60
2023/09/07 08:07:19;;;;;;;7.10;5.57;;;23.10;99.90;;;;;;5059941;28;20766;-61
2023/09/07 08:09:46;;;;;;;6.00;5.13;;;23.60;99.90;;;;;;5059296;28;20505;-60
2023/09/07 08:12:14;;;;;;;8.60;6.07;;;25.00;99.90;;;;;;5059221;28;20881;-60
2023/09/07 08:14:43;;;;;;;10.10;5.73;;;27.10;99.90;;;;;;5057358;28;20525;-60
2023/09/07 08:17:11;;;;;;;7.97;5.50;;;29.20;99.90;;;;;;5057439;28;20485;-60
2023/09/07 08:19:38;;;;;;;8.47;5.30;;;31.30;97.20;;;;;;5057892;28;20584;-60
2023/09/07 08:22:06;;;;;;;10.30;6.03;;;33.10;89.40;;;;;;5057979;28;20490;-61
2023/09/07 08:24:33;;;;;;;7.60;6.10;;;34.20;78.10;;;;;;5057764;28;20467;-58
2023/09/07 08:27:00;;;;;;;7.07;6.37;;;35.60;71.60;;;;;;5079046;28;20895;-59
2023/09/07 08:29:27;;;;;;;8.50;5.43;;;36.80;62.60;;;;;;5081459;28;20449;-60
2023/09/07 08:31:54;;;;;;;6.10;5.50;;;37.50;58.10;;;;;;5060707;28;20533;-60
2023/09/07 08:34:23;;;;;;;6.07;5.20;;;38.30;54.90;;;;;;5059885;28;20501;-61
2023/09/07 08:36:50;;;;;;;5.90;5.30;;;38.70;51.90;;;;;;5059947;28;20507;-58
2023/09/07 08:39:19;;;;;;;6.87;5.27;;;39.10;50.30;;;;;;5060118;28;20486;-59
2023/09/07 08:41:46;;;;;;;8.00;5.20;;;39.30;49.10;;;;;;5059723;28;20497;-60
2023/09/07 08:44:16;;;;;;;7.80;5.70;;;39.40;47.30;;;;;;5061011;28;20473;-60
2023/09/07 08:46:44;;;;;;;6.37;5.47;;;39.50;47.30;;;;;;5060163;28;20479;-60
2023/09/07 08:49:12;;;;;;;10.73;5.27;;;39.80;46.60;;;;;;5060238;28;20447;-59
2023/09/07 08:51:40;;;;;;;8.33;5.37;;;39.70;46.20;;;;;;5057364;28;20462;-57
2023/09/07 08:54:09;;;;;;;5.90;4.60;;;39.50;46.40;;;;;;5054391;28;20513;-59
2023/09/07 08:56:36;;;;;;;7.10;5.20;;;39.70;45.10;;;;;;5054433;28;20447;-58
2023/09/07 08:59:04;;;;;;;9.93;6.00;;;39.70;44.60;;;;;;5054522;28;20467;-61
2023/09/07 09:01:32;;;;;;;6.10;5.33;;;39.60;44.90;;;;;;5040673;28;21022;-60
2023/09/07 09:04:00;;;;;;;5.73;5.20;;;39.20;44.90;;;;;;5035325;28;20522;-58
2023/09/07 09:06:27;;;;;;;5.73;5.13;;;39.10;44.60;;;;;;5039727;28;20459;-58
2023/09/07 09:08:57;;;;;;;5.90;4.60;;;38.90;44.70;;;;;;5054387;28;20916;-60
2023/09/07 09:11:25;;;;;;;4.93;4.43;;;38.90;44.40;;;;;;5054677;28;20455;-59
2023/09/07 09:13:55;;;;;;;5.63;4.93;;;38.60;44.40;;;;;;5054266;28;20447;-59
2023/09/07 09:16:22;;;;;;;10.10;7.90;;;38.70;44.10;;;;;;5055489;28;20525;-60
2023/09/07 09:18:51;;;;;;;5.83;5.17;;;38.70;44.30;;;;;;5056116;28;20446;-59
2023/09/07 09:21:21;;;;;;;7.03;5.63;;;38.70;44.30;;;;;;5053630;28;20578;-60
2023/09/07 09:23:50;;;;;;;6.07;5.47;;;38.70;43.50;;;;;;5054803;28;20517;-57
2023/09/07 09:26:19;;;;;;;6.70;6.10;;;38.70;43.50;;;;;;5056060;28;20453;-61
2023/09/07 09:28:50;;;;;;;6.73;6.00;;;38.80;44.20;;;;;;5055068;28;20517;-62
2023/09/07 09:31:18;;;;;;;6.37;5.73;;;37.20;43.40;;;;;;5054750;28;20467;-58
2023/09/07 09:33:51;;;;;;;9.17;6.10;;;38.50;44.30;;;;;;5055236;28;20475;-59
2023/09/07 09:36:18;;;;;;;6.00;5.50;;;38.60;43.80;;;;;;5055242;28;20471;-61
2023/09/07 09:38:49;;;;;;;6.63;4.57;;;38.50;44.10;;;;;;5055168;28;20451;-61
2023/09/07 09:41:18;;;;;;;5.97;5.37;;;38.50;44.40;;;;;;5058022;28;20497;-61
2023/09/07 09:43:49;;;;;;;5.93;5.33;;;38.50;43.80;;;;;;5059868;28;20471;-59
2023/09/07 09:46:16;;;;;;;6.20;5.60;;;38.50;43.60;;;;;;5060069;28;20458;-59
2023/09/07 09:48:44;;;;;;;5.33;4.83;;;38.40;44.00;;;;;;5059363;28;20443;-61
2023/09/07 09:51:12;;;;;;;5.50;4.90;;;38.60;44.30;;;;;;5060047;28;20533;-60
2023/09/07 09:53:39;;;;;;;6.43;5.80;;;38.90;43.50;;;;;;5060124;28;20861;-60
2023/09/07 09:56:07;;;;;;;6.77;6.07;;;39.10;43.50;;;;;;5059659;28;20439;-60
2023/09/07 09:58:35;;;;;;;12.03;6.60;;;39.00;43.30;;;;;;5058838;28;20497;-62
2023/09/07 10:01:05;;;;;;;9.93;5.60;;;39.00;43.50;;;;;;5059224;28;20479;-59
2023/09/07 10:03:34;;;;;;;6.37;5.20;;;38.90;43.40;;;;;;5058596;28;20471;-61
2023/09/07 10:06:09;;;;;;;6.00;5.33;;;38.80;43.20;;;;;;5058524;28;20467;-61
2023/09/07 10:08:36;;;;;;;10.07;6.80;;;38.80;42.90;;;;;;5059281;28;20435;-58
2023/09/07 10:11:09;;;;;;;9.47;5.97;;;38.80;43.20;;;;;;5058662;28;20454;-59
2023/09/07 10:13:37;;;;;;;8.57;5.90;;;38.60;43.40;;;;;;5058279;28;20427;-61
2023/09/07 10:16:07;;;;;;;8.63;5.37;;;38.40;43.60;;;;;;5058652;28;20490;-61
2023/09/07 10:18:35;;;;;;;6.33;5.60;;;38.20;43.90;;;;;;5058219;28;20529;-59
2023/09/07 10:21:03;;;;;;;6.23;5.67;;;38.20;44.80;;;;;;5058495;28;20497;-59
2023/09/07 10:23:38;;;;;;;6.70;5.20;;;38.10;44.30;;;;;;5060253;28;20450;-60
2023/09/07 10:26:06;;;;;;;8.53;5.03;;;38.10;44.00;;;;;;5058825;28;20431;-59
2023/09/07 10:28:33;;;;;;;7.83;5.87;;;37.90;44.40;;;;;;5058630;28;20471;-60
2023/09/07 10:31:04;;;;;;;9.20;5.90;;;37.70;44.20;;;;;;5058260;28;20795;-60
2023/09/07 10:33:31;;;;;;;9.47;5.80;;;37.50;44.10;;;;;;5058205;28;20428;-60
2023/09/07 10:35:58;;;;;;;6.40;4.97;;;39.40;46.50;;;;;;5057862;28;20502;-61
2023/09/07 10:38:26;;;;;;;5.43;4.90;;;37.00;45.90;;;;;;5057616;28;20695;-59
2023/09/07 10:40:58;;;;;;;4.80;4.40;;;36.70;45.80;;;;;;5057527;28;21171;-60
2023/09/07 10:43:25;;;;;;;9.37;6.13;;;36.50;44.80;;;;;;5057915;28;20506;-59
2023/09/07 10:45:52;;;;;;;6.20;5.60;;;36.40;45.90;;;;;;5057777;28;20501;-62
2023/09/07 10:48:21;;;;;;;6.80;6.07;;;36.10;47.00;;;;;;5061727;28;20550;-61
2023/09/07 10:50:48;;;;;;;5.07;4.57;;;35.80;46.90;;;;;;5077359;28;20433;-61
2023/09/07 10:53:24;;;;;;;6.70;5.77;;;35.50;46.30;;;;;;5077802;28;20471;-59
2023/09/07 10:55:52;;;;;;;5.33;4.73;;;35.30;46.90;;;;;;5061390;28;20492;-60
2023/09/07 10:58:26;;;;;;;7.30;5.30;;;35.00;47.30;;;;;;5037778;28;20479;-59
2023/09/07 11:00:53;;;;;;;11.00;6.40;;;34.70;47.80;;;;;;5037499;28;20549;-61
2023/09/07 11:03:22;;;;;;;5.83;5.30;;;34.50;47.60;;;;;;5040398;28;20557;-60
2023/09/07 11:05:49;;;;;;;6.07;4.60;;;34.20;48.00;;;;;;5057235;28;20783;-59
2023/09/07 11:08:16;;;;;;;5.47;4.93;;;34.00;48.00;;;;;;5056728;28;20447;-61
2023/09/07 11:10:43;;;;;;;7.10;4.80;;;33.80;49.00;;;;;;5057150;28;20444;-61
2023/09/07 11:13:11;;;;;;;6.60;5.33;;;33.50;48.60;;;;;;5056786;28;20460;-61
2023/09/07 11:15:39;;;;;;;5.60;4.80;;;33.30;49.40;;;;;;5037196;28;20460;-60
2023/09/07 11:18:06;;;;;;;6.30;5.70;;;33.10;50.00;;;;;;5037280;28;20510;-60
2023/09/07 11:20:39;;;;;;;5.20;4.70;;;32.90;48.00;;;;;;5037316;28;20444;-60
2023/09/07 11:23:06;;;;;;;4.97;4.47;;;32.70;49.60;;;;;;5036864;28;20468;-58
2023/09/07 11:25:37;;;;;;;7.90;4.43;;;32.60;50.20;;;;;;5037069;28;20472;-59
2023/09/07 11:28:06;;;;;;;7.77;4.97;;;32.30;50.40;;;;;;5037088;28;20535;-61
2023/09/07 11:30:33;;;;;;;4.30;3.90;;;32.00;50.80;;;;;;5036956;28;20959;-60
2023/09/07 11:33:05;;;;;;;6.20;4.23;;;31.90;50.20;;;;;;5036964;28;20447;-60
2023/09/07 11:35:34;;;;;;;4.63;4.10;;;31.70;49.30;;;;;;5054948;28;20455;-61
2023/09/07 11:38:03;;;;;;;7.23;4.43;;;31.60;50.10;;;;;;5056787;28;20499;-60
2023/09/07 11:40:30;;;;;;;5.60;4.67;;;31.50;50.10;;;;;;5056350;28;20539;-61
2023/09/07 11:42:58;;;;;;;4.70;4.30;;;31.40;51.10;;;;;;5057027;28;20529;-60
2023/09/07 11:45:25;;;;;;;11.83;5.47;;;31.30;51.10;;;;;;5057363;28;20741;-61
2023/09/07 11:47:55;;;;;;;5.80;3.93;;;31.20;51.00;;;;;;5056945;28;20450;-60
2023/09/07 11:50:24;;;;;;;4.53;4.13;;;30.50;50.50;;;;;;5056657;28;20939;-60
2023/09/07 11:52:52;;;;;;;6.00;4.80;;;31.20;51.50;;;;;;5056834;28;20454;-60
2023/09/07 11:55:19;;;;;;;4.90;4.27;;;31.10;50.90;;;;;;5056529;28;20517;-58
2023/09/07 11:57:46;;;;;;;6.03;5.17;;;31.10;52.60;;;;;;5057045;28;20479;-60
2023/09/07 12:00:14;;;;;;;5.63;4.17;;;31.10;51.60;;;;;;5056429;28;20486;-60
2023/09/07 12:02:41;;;;;;;6.07;4.67;;;31.10;51.00;;;;;;5055272;28;20483;-61
2023/09/07 12:05:09;;;;;;;4.63;4.23;;;31.00;50.70;;;;;;5036907;28;20459;-60
2023/09/07 12:07:36;;;;;;;5.30;4.60;;;31.00;52.30;;;;;;5036953;28;20804;-60
2023/09/07 12:10:05;;;;;;;4.87;4.47;;;30.90;52.30;;;;;;5036716;28;20779;-60
2023/09/07 12:12:32;;;;;;;5.33;4.63;;;30.80;52.50;;;;;;5036293;28;20483;-59
2023/09/07 12:15:00;;;;;;;7.03;4.40;;;30.80;51.30;;;;;;5036876;28;20460;-60
2023/09/07 12:17:27;;;;;;;4.60;4.20;;;30.80;52.20;;;;;;5036351;28;20452;-59
2023/09/07 12:19:54;;;;;;;8.17;6.00;;;30.80;51.30;;;;;;5036111;28;20490;-61
2023/09/07 12:22:21;;;;;;;20.40;15.40;;;30.70;51.20;;;;;;5036255;28;20991;-59
2023/09/07 12:24:48;;;;;;;7.90;6.70;;;30.70;53.10;;;;;;5036406;28;20453;-58
2023/09/07 12:27:16;;;;;;;7.67;4.90;;;30.70;53.30;;;;;;5035999;28;20910;-59
2023/09/07 12:29:44;;;;;;;4.50;4.10;;;30.70;52.60;;;;;;5035942;28;20457;-60
2023/09/07 12:32:11;;;;;;;8.27;6.10;;;30.70;53.40;;;;;;5035995;28;20471;-60
2023/09/07 12:34:38;;;;;;;6.43;5.17;;;30.60;53.10;;;;;;5067917;28;20873;-60
2023/09/07 12:37:05;;;;;;;6.37;4.80;;;30.60;52.90;;;;;;5076101;28;20462;-62
2023/09/07 12:39:32;;;;;;;8.40;5.23;;;30.60;54.40;;;;;;5076818;28;20470;-61
2023/09/07 12:42:00;;;;;;;8.70;6.00;;;30.70;53.40;;;;;;5077134;28;20523;-60
2023/09/07 12:44:28;;;;;;;5.47;4.37;;;30.80;53.30;;;;;;5078070;28;20498;-59
2023/09/07 12:46:55;;;;;;;7.63;5.03;;;30.80;52.20;;;;;;5077927;28;20446;-60
2023/09/07 12:49:22;;;;;;;6.33;4.97;;;30.80;53.20;;;;;;5078326;28;20469;-59